createdAt,value
2018-08-24T00:00:49.722Z,17.40
2018-08-24T00:03:21.312Z,19.20
2018-08-24T00:05:52.892Z,15.80
2018-08-24T00:08:24.168Z,16.30
2018-08-24T00:10:54.847Z,16.73
2018-08-24T00:13:26.083Z,16.07
2018-08-24T00:15:57.653Z,17.40
2018-08-24T00:18:30.437Z,18.80
2018-08-24T00:21:01.322Z,18.47
2018-08-24T00:23:32.220Z,16.43
2018-08-24T00:26:02.829Z,15.97
2018-08-24T00:28:35.444Z,16.43
2018-08-24T00:31:06.103Z,15.47
2018-08-24T00:33:37.068Z,14.70
2018-08-24T00:36:07.887Z,14.33
2018-08-24T00:38:38.620Z,13.87
2018-08-24T00:41:09.164Z,13.37
2018-08-24T00:43:40.035Z,12.60
2018-08-24T00:46:11.017Z,12.80
2018-08-24T00:48:41.481Z,12.83
2018-08-24T00:51:12.037Z,11.90
2018-08-24T00:53:42.535Z,12.40
2018-08-24T00:56:13.399Z,12.50
2018-08-24T00:58:43.870Z,13.27
2018-08-24T01:01:14.596Z,13.53
2018-08-24T01:03:45.158Z,13.87
2018-08-24T01:06:18.402Z,14.00
2018-08-24T01:08:49.088Z,14.83
2018-08-24T01:11:19.677Z,18.93
2018-08-24T01:13:51.945Z,27.73
2018-08-24T01:16:27.524Z,29.10
2018-08-24T01:18:57.959Z,23.40
2018-08-24T01:21:28.714Z,19.07
2018-08-24T01:23:59.109Z,19.60
2018-08-24T01:26:29.766Z,17.60
2018-08-24T01:29:00.481Z,16.27
2018-08-24T01:31:31.170Z,15.13
2018-08-24T01:34:02.367Z,15.03
2018-08-24T01:36:32.866Z,15.23
2018-08-24T01:39:03.433Z,16.03
2018-08-24T01:41:33.897Z,17.00
2018-08-24T01:44:04.694Z,16.77
2018-08-24T01:46:35.163Z,16.33
2018-08-24T01:49:05.682Z,16.00
2018-08-24T01:51:36.227Z,16.63
2018-08-24T01:54:06.682Z,15.13
2018-08-24T01:56:37.137Z,16.73
2018-08-24T01:59:08.435Z,16.47
2018-08-24T02:01:39.659Z,16.13
2018-08-24T02:04:09.990Z,15.17
2018-08-24T02:06:40.863Z,14.80
2018-08-24T02:09:13.415Z,14.07
2018-08-24T02:11:43.974Z,15.37
2018-08-24T02:14:19.724Z,14.77
2018-08-24T02:16:50.269Z,16.13
2018-08-24T02:19:24.611Z,14.73
2018-08-24T02:22:00.166Z,14.77
2018-08-24T02:24:30.518Z,15.60
2018-08-24T02:27:01.005Z,15.83
2018-08-24T02:29:31.671Z,16.60
2018-08-24T02:32:01.997Z,17.70
2018-08-24T02:34:32.382Z,17.00
2018-08-24T02:37:02.829Z,17.37
2018-08-24T02:39:33.612Z,18.03
2018-08-24T02:42:04.337Z,18.20
2018-08-24T02:44:34.869Z,19.07
2018-08-24T02:47:06.563Z,21.77
2018-08-24T02:49:37.497Z,19.97
2018-08-24T02:52:08.046Z,19.03
2018-08-24T02:54:38.768Z,18.90
2018-08-24T02:57:09.338Z,17.60
2018-08-24T02:59:39.759Z,16.97
2018-08-24T03:02:10.227Z,17.93
2018-08-24T03:04:40.630Z,17.00
2018-08-24T03:07:12.241Z,17.57
2018-08-24T03:09:42.580Z,17.23
2018-08-24T03:12:12.935Z,17.30
2018-08-24T03:14:43.344Z,17.60
2018-08-24T03:17:18.822Z,16.40
2018-08-24T03:19:49.421Z,16.43
2018-08-24T03:22:20.384Z,17.27
2018-08-24T03:24:50.724Z,17.43
2018-08-24T03:27:21.119Z,16.60
2018-08-24T03:29:51.628Z,16.33
2018-08-24T03:32:22.044Z,16.70
2018-08-24T03:34:52.387Z,16.40
2018-08-24T03:37:22.839Z,16.03
2018-08-24T03:39:53.431Z,15.63
2018-08-24T03:42:23.901Z,16.47
2018-08-24T03:44:54.463Z,16.60
2018-08-24T03:47:24.956Z,16.77
2018-08-24T03:49:56.249Z,16.87
2018-08-24T03:52:26.759Z,15.97
2018-08-24T03:54:57.241Z,15.73
2018-08-24T03:57:27.708Z,15.43
2018-08-24T03:59:58.156Z,16.13
2018-08-24T04:02:28.892Z,16.97
2018-08-24T04:04:59.552Z,15.57
2018-08-24T04:07:29.867Z,15.97
2018-08-24T04:10:00.582Z,15.63
2018-08-24T04:12:31.118Z,16.20
2018-08-24T04:15:02.443Z,16.50
2018-08-24T04:17:37.740Z,16.87
2018-08-24T04:20:08.807Z,16.37
2018-08-24T04:22:39.400Z,16.50
2018-08-24T04:25:11.086Z,17.23
2018-08-24T04:27:41.455Z,16.67
2018-08-24T04:30:12.515Z,16.93
2018-08-24T04:32:42.936Z,16.63
2018-08-24T04:35:13.473Z,16.47
2018-08-24T04:37:43.981Z,15.20
2018-08-24T04:40:14.521Z,15.33
2018-08-24T04:42:45.021Z,15.40
2018-08-24T04:45:15.474Z,14.83
2018-08-24T04:47:45.807Z,17.13
2018-08-24T04:50:16.156Z,17.00
2018-08-24T04:52:46.756Z,15.17
2018-08-24T04:55:17.215Z,15.83
2018-08-24T04:57:47.707Z,15.30
2018-08-24T05:00:18.295Z,16.10
2018-08-24T05:02:48.871Z,15.73
2018-08-24T05:05:19.379Z,17.60
2018-08-24T05:07:49.981Z,16.43
2018-08-24T05:10:20.636Z,15.13
2018-08-24T05:12:51.071Z,16.00
2018-08-24T05:15:21.614Z,17.23
2018-08-24T05:17:52.289Z,15.63
2018-08-24T05:20:23.800Z,14.97
2018-08-24T05:22:54.383Z,13.83
2018-08-24T05:25:24.920Z,13.67
2018-08-24T05:27:55.492Z,13.73
2018-08-24T05:30:26.252Z,12.80
2018-08-24T05:32:56.737Z,12.10
2018-08-24T05:35:27.406Z,11.83
2018-08-24T05:37:57.901Z,12.53
2018-08-24T05:40:28.569Z,11.10
2018-08-24T05:42:59.842Z,11.97
2018-08-24T05:45:30.337Z,10.60
2018-08-24T05:48:01.233Z,10.23
2018-08-24T05:50:31.866Z,11.10
2018-08-24T05:53:02.599Z,11.10
2018-08-24T05:55:33.285Z,11.00
2018-08-24T05:58:03.993Z,10.80
2018-08-24T06:00:37.874Z,11.10
2018-08-24T06:03:09.924Z,10.90
2018-08-24T06:05:45.641Z,11.43
2018-08-24T06:08:17.086Z,11.30
2018-08-24T06:10:48.537Z,12.07
2018-08-24T06:13:20.892Z,12.50
2018-08-24T06:15:51.660Z,13.00
2018-08-24T06:18:22.626Z,12.53
2018-08-24T06:20:53.123Z,12.80
2018-08-24T06:23:23.712Z,12.53
2018-08-24T06:25:54.408Z,13.23
2018-08-24T06:28:25.014Z,13.90
2018-08-24T06:30:55.472Z,13.50
2018-08-24T06:33:26.201Z,13.33
2018-08-24T06:35:55.429Z,13.63
2018-08-24T06:38:26.039Z,13.70
2018-08-24T06:40:56.792Z,13.27
2018-08-24T06:43:27.356Z,14.10
2018-08-24T06:45:57.856Z,13.50
2018-08-24T06:48:28.558Z,13.40
2018-08-24T06:50:59.379Z,13.50
2018-08-24T06:53:30.079Z,13.40
2018-08-24T06:56:00.843Z,13.20
2018-08-24T06:58:33.720Z,13.47
2018-08-24T07:01:04.485Z,13.13
2018-08-24T07:03:36.196Z,13.23
2018-08-24T07:06:07.355Z,13.60
2018-08-24T07:08:37.977Z,13.57
2018-08-24T07:11:09.205Z,13.77
2018-08-24T07:13:40.807Z,13.40
2018-08-24T07:16:12.548Z,14.17
2018-08-24T07:18:43.828Z,14.20
2018-08-24T07:21:14.562Z,13.37
2018-08-24T07:23:45.911Z,13.37
2018-08-24T07:26:16.430Z,13.17
2018-08-24T07:28:46.933Z,12.67
2018-08-24T07:31:17.590Z,13.47
2018-08-24T07:33:48.442Z,13.17
2018-08-24T07:36:19.575Z,13.23
2018-08-24T07:38:50.325Z,13.23
2018-08-24T07:41:21.042Z,12.87
2018-08-24T07:43:51.663Z,12.50
2018-08-24T07:46:22.412Z,13.57
2018-08-24T07:48:53.582Z,12.53
2018-08-24T07:51:24.631Z,13.40
2018-08-24T07:53:56.568Z,12.47
2018-08-24T07:56:29.517Z,12.47
2018-08-24T07:59:02.207Z,12.17
2018-08-24T08:01:33.229Z,11.87
2018-08-24T08:04:06.443Z,12.53
2018-08-24T08:06:37.529Z,11.83
2018-08-24T08:09:09.600Z,11.23
2018-08-24T08:11:41.716Z,12.03
2018-08-24T08:14:12.487Z,12.33
2018-08-24T08:16:43.100Z,11.57
2018-08-24T08:19:13.781Z,11.63
2018-08-24T08:21:48.094Z,11.83
2018-08-24T08:24:23.809Z,10.43
2018-08-24T08:26:54.501Z,12.57
2018-08-24T08:29:30.639Z,12.40
2018-08-24T08:32:01.346Z,11.40
2018-08-24T08:34:36.879Z,10.70
2018-08-24T08:37:07.913Z,12.53
2018-08-24T08:39:40.498Z,12.00
2018-08-24T08:42:11.267Z,11.60
2018-08-24T08:44:42.689Z,11.30
2018-08-24T08:47:13.362Z,10.10
2018-08-24T08:49:43.979Z,10.87
2018-08-24T08:52:14.875Z,10.43
2018-08-24T08:54:45.484Z,9.73
2018-08-24T08:57:16.146Z,10.00
2018-08-24T08:59:47.569Z,10.43
2018-08-24T09:02:18.307Z,9.63
2018-08-24T09:04:50.194Z,10.23
2018-08-24T09:07:22.840Z,10.23
2018-08-24T09:09:53.972Z,9.23
2018-08-24T09:12:25.916Z,9.73
2018-08-24T09:14:56.929Z,9.33
2018-08-24T09:17:33.112Z,9.18
2018-08-24T09:20:09.273Z,9.05
2018-08-24T09:22:45.026Z,8.30
2018-08-24T09:25:21.590Z,8.73
2018-08-24T09:27:58.769Z,8.53
2018-08-24T09:30:34.244Z,8.55
2018-08-24T09:33:06.428Z,9.20
2018-08-24T09:35:37.745Z,8.60
2018-08-24T09:38:09.012Z,9.03
2018-08-24T09:40:44.902Z,8.80
2018-08-24T09:43:20.531Z,8.68
2018-08-24T09:45:51.263Z,8.75
2018-08-24T09:48:29.552Z,8.23
2018-08-24T09:51:05.420Z,8.45
2018-08-24T09:54:12.519Z,8.25
2018-08-24T09:56:44.417Z,8.23
2018-08-24T09:59:14.936Z,8.40
2018-08-24T10:01:51.092Z,8.13
2018-08-24T10:04:27.722Z,9.48
2018-08-24T10:07:03.334Z,8.00
2018-08-24T10:09:34.026Z,7.95
2018-08-24T10:12:04.824Z,8.13
2018-08-24T10:14:35.626Z,8.40
2018-08-24T10:17:06.246Z,7.85
2018-08-24T10:19:37.621Z,8.43
2018-08-24T10:22:08.185Z,8.08
2018-08-24T10:24:39.359Z,8.13
2018-08-24T10:27:10.051Z,8.20
2018-08-24T10:29:40.888Z,7.90
2018-08-24T10:32:11.659Z,8.30
2018-08-24T10:34:42.294Z,8.08
2018-08-24T10:37:13.007Z,8.00
2018-08-24T10:39:43.663Z,7.75
2018-08-24T10:42:14.393Z,7.87
2018-08-24T10:44:45.072Z,7.60
2018-08-24T10:47:18.070Z,8.00
2018-08-24T10:49:48.927Z,7.90
2018-08-24T10:52:19.578Z,7.62
2018-08-24T10:54:50.565Z,7.92
2018-08-24T10:57:21.109Z,7.85
2018-08-24T10:59:51.862Z,7.00
2018-08-24T11:02:23.696Z,7.12
2018-08-24T11:04:54.564Z,7.55
2018-08-24T11:07:25.906Z,9.15
2018-08-24T11:09:56.442Z,7.22
2018-08-24T11:12:31.625Z,6.80
2018-08-24T11:15:04.620Z,6.72
2018-08-24T11:17:40.249Z,6.60
2018-08-24T11:20:10.852Z,6.95
2018-08-24T11:22:43.760Z,6.12
2018-08-24T11:25:16.720Z,7.15
2018-08-24T11:27:48.570Z,6.58
2018-08-24T11:30:21.125Z,6.42
2018-08-24T11:32:52.964Z,6.40
2018-08-24T11:35:24.793Z,6.92
2018-08-24T11:37:56.498Z,6.90
2018-08-24T11:40:27.404Z,6.80
2018-08-24T11:42:58.214Z,7.40
2018-08-24T11:45:29.903Z,6.50
2018-08-24T11:48:00.726Z,6.53
2018-08-24T11:50:31.584Z,6.47
2018-08-24T11:53:02.460Z,6.40
2018-08-24T11:55:33.091Z,6.97
2018-08-24T11:58:05.024Z,6.70
2018-08-24T12:00:36.098Z,7.03
2018-08-24T12:03:08.511Z,6.50
2018-08-24T12:05:39.107Z,6.30
2018-08-24T12:08:10.558Z,7.28
2018-08-24T12:10:41.181Z,6.83
2018-08-24T12:13:11.869Z,7.33
2018-08-24T12:15:42.749Z,6.53
2018-08-24T12:18:13.568Z,6.30
2018-08-24T12:20:45.226Z,6.28
2018-08-24T12:23:15.956Z,6.58
2018-08-24T12:25:47.751Z,6.70
2018-08-24T12:28:18.554Z,6.65
2018-08-24T12:30:50.465Z,6.78
2018-08-24T12:33:21.559Z,6.28
2018-08-24T12:35:52.247Z,6.05
2018-08-24T12:38:23.717Z,6.25
2018-08-24T12:40:56.582Z,6.67
2018-08-24T12:43:27.534Z,6.35
2018-08-24T12:45:59.428Z,6.60
2018-08-24T12:48:30.198Z,6.40
2018-08-24T12:51:00.927Z,6.65
2018-08-24T12:53:31.598Z,6.25
2018-08-24T12:56:02.448Z,6.10
2018-08-24T12:58:33.348Z,6.12
2018-08-24T13:01:04.147Z,6.12
2018-08-24T13:03:35.691Z,6.55
2018-08-24T13:06:07.160Z,6.20
2018-08-24T13:08:37.816Z,5.62
2018-08-24T13:11:10.573Z,6.00
2018-08-24T13:13:41.604Z,5.87
2018-08-24T13:16:13.681Z,6.12
2018-08-24T13:18:45.372Z,5.75
2018-08-24T13:21:17.771Z,5.90
2018-08-24T13:23:48.424Z,6.05
2018-08-24T13:26:19.138Z,5.70
2018-08-24T13:28:52.145Z,6.00
2018-08-24T13:31:25.327Z,5.70
2018-08-24T13:33:55.952Z,6.08
2018-08-24T13:36:27.929Z,5.75
2018-08-24T13:38:58.647Z,9.70
2018-08-24T13:41:29.499Z,6.50
2018-08-24T13:44:00.192Z,6.17
2018-08-24T13:46:31.525Z,6.35
2018-08-24T13:49:03.120Z,6.37
2018-08-24T13:51:33.917Z,6.30
2018-08-24T13:54:07.563Z,5.97
2018-08-24T13:56:41.694Z,6.17
2018-08-24T13:59:13.676Z,8.75
2018-08-24T14:01:45.861Z,6.30
2018-08-24T14:04:17.072Z,6.27
2018-08-24T14:06:48.931Z,6.33
2018-08-24T14:09:20.169Z,5.80
2018-08-24T14:11:50.988Z,6.60
2018-08-24T14:14:21.893Z,6.20
2018-08-24T14:16:53.256Z,6.17
2018-08-24T14:19:25.329Z,6.37
2018-08-24T14:21:56.374Z,5.87
2018-08-24T14:24:29.534Z,6.70
2018-08-24T14:27:01.311Z,7.03
2018-08-24T14:29:32.399Z,7.17
2018-08-24T14:32:05.912Z,6.70
2018-08-24T14:34:36.791Z,7.10
2018-08-24T14:37:07.784Z,7.20
2018-08-24T14:39:38.782Z,7.37
2018-08-24T14:42:19.156Z,6.90
2018-08-24T14:44:53.267Z,6.80
2018-08-24T14:47:27.241Z,7.20
2018-08-24T14:49:59.600Z,7.80
2018-08-24T14:52:30.857Z,7.43
2018-08-24T14:55:12.014Z,7.80
2018-08-24T14:57:44.841Z,8.10
2018-08-24T15:00:16.850Z,8.03
2018-08-24T15:03:04.012Z,7.90
2018-08-24T15:05:44.929Z,8.53
2018-08-24T15:08:26.215Z,8.17
2018-08-24T15:11:01.465Z,8.20
2018-08-24T15:13:33.450Z,8.10
2018-08-24T15:16:06.718Z,7.83
2018-08-24T15:18:45.788Z,7.93
2018-08-24T15:21:22.684Z,8.47
2018-08-24T15:23:57.867Z,8.13
2018-08-24T15:26:31.987Z,7.77
2018-08-24T15:29:06.629Z,8.50
2018-08-24T15:31:38.040Z,8.33
2018-08-24T15:34:09.182Z,8.53
2018-08-24T15:36:39.895Z,8.00
2018-08-24T15:39:13.860Z,7.80
2018-08-24T15:41:45.152Z,8.63
2018-08-24T15:44:15.858Z,8.23
2018-08-24T15:46:46.744Z,7.70
2018-08-24T15:49:17.487Z,8.20
2018-08-24T15:51:48.246Z,8.40
2018-08-24T15:54:20.998Z,8.83
2018-08-24T15:56:52.053Z,8.13
2018-08-24T15:59:25.328Z,7.87
2018-08-24T16:01:57.911Z,8.10
2018-08-24T16:04:28.769Z,26.30
2018-08-24T16:07:00.270Z,12.63
2018-08-24T16:09:31.054Z,15.80
2018-08-24T16:12:03.079Z,9.53
2018-08-24T16:14:34.310Z,9.70
2018-08-24T16:17:07.008Z,8.90
2018-08-24T16:19:37.709Z,7.97
2018-08-24T16:22:09.679Z,8.80
2018-08-24T16:24:43.889Z,8.30
2018-08-24T16:27:18.908Z,9.10
2018-08-24T16:29:49.513Z,9.17
2018-08-24T16:32:20.298Z,8.80
2018-08-24T16:34:51.212Z,9.10
2018-08-24T16:37:23.071Z,9.07
2018-08-24T16:39:54.674Z,9.07
2018-08-24T16:42:25.804Z,8.73
2018-08-24T16:44:56.728Z,8.87
2018-08-24T16:47:27.412Z,9.50
2018-08-24T16:49:58.513Z,9.23
2018-08-24T16:52:31.118Z,9.37
2018-08-24T16:55:01.808Z,9.60
2018-08-24T16:57:32.585Z,9.00
2018-08-24T17:00:03.443Z,8.53
2018-08-24T17:02:34.046Z,11.53
2018-08-24T17:05:05.343Z,9.53
2018-08-24T17:07:36.118Z,9.47
2018-08-24T17:10:08.321Z,9.53
2018-08-24T17:12:39.862Z,10.27
2018-08-24T17:15:11.479Z,9.80
2018-08-24T17:17:42.822Z,9.67
2018-08-24T17:20:13.866Z,10.23
2018-08-24T17:22:44.823Z,9.60
2018-08-24T17:25:16.768Z,10.30
2018-08-24T17:27:47.975Z,10.43
2018-08-24T17:30:20.083Z,10.17
2018-08-24T17:32:51.320Z,10.20
2018-08-24T17:35:23.124Z,10.47
2018-08-24T17:37:53.919Z,10.10
2018-08-24T17:40:27.268Z,11.23
2018-08-24T17:42:58.439Z,10.53
2018-08-24T17:45:29.763Z,9.63
2018-08-24T17:48:00.873Z,10.47
2018-08-24T17:50:31.730Z,10.43
2018-08-24T17:53:03.081Z,10.70
2018-08-24T17:55:34.952Z,11.17
2018-08-24T17:58:06.897Z,10.30
2018-08-24T18:00:38.698Z,10.50
2018-08-24T18:03:10.050Z,10.53
2018-08-24T18:05:41.982Z,10.30
2018-08-24T18:08:15.081Z,12.83
2018-08-24T18:10:48.078Z,11.00
2018-08-24T18:13:19.951Z,10.43
2018-08-24T18:15:51.457Z,10.37
2018-08-24T18:18:23.317Z,10.90
2018-08-24T18:20:55.029Z,10.30
2018-08-24T18:23:26.605Z,10.50
2018-08-24T18:25:58.473Z,10.97
2018-08-24T18:28:30.011Z,10.83
2018-08-24T18:31:02.440Z,11.70
2018-08-24T18:33:35.772Z,11.10
2018-08-24T18:36:08.011Z,12.00
2018-08-24T18:38:41.138Z,12.10
2018-08-24T18:41:13.412Z,11.33
2018-08-24T18:43:45.253Z,12.23
2018-08-24T18:46:17.077Z,11.83
2018-08-24T18:48:48.699Z,11.47
2018-08-24T18:51:20.392Z,11.57
2018-08-24T18:53:52.136Z,11.57
2018-08-24T18:56:23.805Z,11.53
2018-08-24T18:58:56.279Z,11.67
2018-08-24T19:01:27.755Z,13.93
2018-08-24T19:04:01.614Z,12.80
2018-08-24T19:06:33.216Z,11.53
2018-08-24T19:09:06.083Z,11.67
2018-08-24T19:11:42.531Z,11.70
2018-08-24T19:14:15.855Z,12.03
2018-08-24T19:16:47.357Z,12.53
2018-08-24T19:19:24.440Z,12.67
2018-08-24T19:22:03.871Z,12.33
2018-08-24T19:24:35.587Z,12.60
2018-08-24T19:27:06.525Z,12.40
2018-08-24T19:29:43.421Z,12.03
2018-08-24T19:32:15.204Z,12.67
2018-08-24T19:34:47.131Z,12.47
2018-08-24T19:37:18.894Z,13.50
2018-08-24T19:39:56.009Z,12.33
2018-08-24T19:42:28.137Z,12.80
2018-08-24T19:45:00.255Z,16.20
2018-08-24T19:47:37.742Z,15.63
2018-08-24T19:50:10.566Z,13.80
2018-08-24T19:52:42.770Z,12.83
2018-08-24T19:55:14.968Z,14.70
2018-08-24T19:57:51.302Z,13.60
2018-08-24T20:00:25.971Z,12.70
2018-08-24T20:02:59.020Z,13.30
2018-08-24T20:05:31.698Z,16.53
2018-08-24T20:09:14.347Z,27.67
2018-08-24T20:11:52.450Z,23.20
2018-08-24T20:14:29.170Z,19.50
2018-08-24T20:17:07.393Z,21.03
2018-08-24T20:19:39.683Z,21.30
2018-08-24T20:22:12.375Z,24.20
2018-08-24T20:24:44.921Z,24.43
2018-08-24T20:27:17.757Z,18.27
2018-08-24T20:29:49.533Z,13.07
2018-08-24T20:32:21.211Z,13.53
2018-08-24T20:34:52.840Z,13.77
2018-08-24T20:37:24.522Z,13.00
2018-08-24T20:39:56.136Z,13.60
2018-08-24T20:42:27.848Z,13.03
2018-08-24T20:44:59.879Z,12.93
2018-08-24T20:47:35.006Z,13.20
2018-08-24T20:50:06.124Z,13.60
2018-08-24T20:52:37.152Z,13.03
2018-08-24T20:55:08.017Z,13.30
2018-08-24T20:57:38.702Z,14.60
2018-08-24T21:00:09.673Z,13.37
2018-08-24T21:02:40.404Z,13.70
2018-08-24T21:05:11.451Z,17.33
2018-08-24T21:07:42.067Z,23.23
2018-08-24T21:10:13.658Z,22.30
2018-08-24T21:12:45.341Z,29.70
2018-08-24T21:15:16.196Z,15.00
2018-08-24T21:17:46.817Z,13.90
2018-08-24T21:20:17.445Z,15.43
2018-08-24T21:22:49.139Z,22.33
2018-08-24T21:25:19.985Z,26.23
2018-08-24T21:27:50.776Z,35.23
2018-08-24T21:30:21.622Z,27.67
2018-08-24T21:32:52.145Z,26.77
2018-08-24T21:35:22.628Z,19.30
2018-08-24T21:37:53.320Z,16.60
2018-08-24T21:40:24.547Z,15.93
2018-08-24T21:42:55.343Z,14.50
2018-08-24T21:45:26.438Z,14.90
2018-08-24T21:47:57.034Z,13.93
2018-08-24T21:50:27.787Z,14.67
2018-08-24T21:52:58.601Z,14.83
2018-08-24T21:55:29.061Z,13.70
2018-08-24T21:57:59.789Z,14.50
2018-08-24T22:00:30.877Z,14.93
2018-08-24T22:03:02.011Z,15.30
2018-08-24T22:05:33.779Z,14.50
2018-08-24T22:08:06.963Z,17.57
2018-08-24T22:10:37.532Z,17.67
2018-08-24T22:13:10.181Z,18.87
2018-08-24T22:15:40.892Z,20.10
2018-08-24T22:18:11.895Z,21.60
2018-08-24T22:20:42.566Z,21.33
2018-08-24T22:23:13.188Z,20.70
2018-08-24T22:25:44.220Z,23.57
2018-08-24T22:28:15.350Z,20.77
2018-08-24T22:30:46.196Z,16.77
2018-08-24T22:33:16.970Z,15.80
2018-08-24T22:35:47.726Z,15.40
2018-08-24T22:38:18.385Z,15.53
2018-08-24T22:40:49.720Z,16.93
2018-08-24T22:43:25.492Z,18.53
2018-08-24T22:45:56.295Z,21.07
2018-08-24T22:48:27.516Z,19.27
2018-08-24T22:50:58.355Z,17.63
2018-08-24T22:53:28.979Z,19.33
2018-08-24T22:55:59.514Z,19.93
2018-08-24T22:58:30.379Z,21.37
2018-08-24T23:01:01.038Z,21.53
2018-08-24T23:03:33.048Z,21.93
2018-08-24T23:06:06.405Z,20.90
2018-08-24T23:08:37.392Z,20.93
2018-08-24T23:11:08.193Z,22.47
2018-08-24T23:13:38.812Z,22.37
2018-08-24T23:16:10.264Z,30.53
2018-08-24T23:18:42.069Z,25.93
2018-08-24T23:21:13.209Z,23.40
2018-08-24T23:23:43.695Z,25.03
2018-08-24T23:26:14.486Z,24.07
2018-08-24T23:28:44.978Z,21.80
2018-08-24T23:31:15.460Z,17.97
2018-08-24T23:33:45.989Z,18.13
2018-08-24T23:36:16.520Z,16.93
2018-08-24T23:38:48.385Z,17.50
2018-08-24T23:41:18.809Z,18.33
2018-08-24T23:43:49.438Z,18.57
2018-08-24T23:46:20.023Z,17.37
2018-08-24T23:48:50.497Z,18.03
2018-08-24T23:51:21.055Z,17.67
2018-08-24T23:53:51.612Z,18.07
2018-08-24T23:56:22.206Z,18.63
2018-08-24T23:58:52.863Z,18.23
